N1TF KATL-KFLL
Flight info
| Callsign | N1TF |
|---|---|
| Flight time | 2h 35m |
| Altitude | 45000 |
| Route | VRSTY3 NOKIE YANTI Q89 PRMUS CUUDA3 |
| Aircraft | GLF6/M-SBDE2E3FGHIJ4J5M1RWXY/LB1D1 |
Departure
| Time | 2026-05-03 21:49 |
|---|---|
| Airport | Hartsfield Jackson Atlanta International Airport (KATL) |
Arrival
| Time | 2026-05-04 00:24 |
|---|---|
| Airport | Fort Lauderdale Hollywood International Airport (KFLL) |
| Time | Latitude | Longitude | Altitude | Speed | Heading |
|---|---|---|---|---|---|
| 2026-05-03 21:32 | 33.65227 | -84.42473 | 989 ft | 0 kts | 30° |
| 2026-05-03 21:38 | 33.65228 | -84.42472 | 989 ft | 0 kts | 39° |
| 2026-05-03 21:38 | 33.65208 | -84.42448 | 989 ft | 6 kts | 218° |
| 2026-05-03 21:38 | 33.65199 | -84.42462 | 989 ft | 0 kts | 241° |
| 2026-05-03 21:40 | 33.65173 | -84.42518 | 989 ft | 11 kts | 241° |
| 2026-05-03 21:40 | 33.65137 | -84.42577 | 991 ft | 4 kts | 222° |
| 2026-05-03 21:40 | 33.65130 | -84.42584 | 991 ft | 2 kts | 196° |
| 2026-05-03 21:41 | 33.65098 | -84.42580 | 991 ft | 10 kts | 147° |
| 2026-05-03 21:41 | 33.65072 | -84.42529 | 990 ft | 6 kts | 104° |
| 2026-05-03 21:41 | 33.65067 | -84.42493 | 989 ft | 4 kts | 96° |
| 2026-05-03 21:41 | 33.65064 | -84.42407 | 987 ft | 16 kts | 91° |
| 2026-05-03 21:42 | 33.65062 | -84.42273 | 985 ft | 11 kts | 91° |
| 2026-05-03 21:42 | 33.65064 | -84.42188 | 983 ft | 10 kts | 87° |
| 2026-05-03 21:42 | 33.65064 | -84.42093 | 981 ft | 10 kts | 91° |
| 2026-05-03 21:42 | 33.65065 | -84.41988 | 979 ft | 18 kts | 89° |
| 2026-05-03 21:43 | 33.65067 | -84.41793 | 979 ft | 28 kts | 89° |
| 2026-05-03 21:43 | 33.65072 | -84.41579 | 979 ft | 21 kts | 81° |
| 2026-05-03 21:43 | 33.65116 | -84.41431 | 980 ft | 15 kts | 81° |
| 2026-05-03 21:43 | 33.65119 | -84.41335 | 982 ft | 8 kts | 90° |
| 2026-05-03 21:44 | 33.65119 | -84.41254 | 984 ft | 11 kts | 90° |
| 2026-05-03 21:44 | 33.65122 | -84.41150 | 986 ft | 14 kts | 89° |
| 2026-05-03 21:44 | 33.65121 | -84.41044 | 988 ft | 9 kts | 91° |
| 2026-05-03 21:44 | 33.65076 | -84.40964 | 989 ft | 23 kts | 168° |
| 2026-05-03 21:45 | 33.64898 | -84.40961 | 987 ft | 18 kts | 174° |
| 2026-05-03 21:45 | 33.64850 | -84.40842 | 986 ft | 18 kts | 90° |
| 2026-05-03 21:45 | 33.64849 | -84.40660 | 983 ft | 22 kts | 94° |
| 2026-05-03 21:45 | 33.64797 | -84.40572 | 981 ft | 4 kts | 162° |
| 2026-05-03 21:46 | 33.64793 | -84.40570 | 981 ft | 0 kts | 168° |
| 2026-05-03 21:46 | 33.64770 | -84.40569 | 980 ft | 3 kts | 178° |
| 2026-05-03 21:47 | 33.64700 | -84.40572 | 978 ft | 17 kts | 203° |
| 2026-05-03 21:47 | 33.64677 | -84.40647 | 979 ft | 4 kts | 270° |
| 2026-05-03 21:47 | 33.64677 | -84.40648 | 979 ft | 0 kts | 270° |
| 2026-05-03 21:48 | 33.64677 | -84.40662 | 979 ft | 8 kts | 272° |
| 2026-05-03 21:48 | 33.64681 | -84.41170 | 983 ft | 127 kts | 270° |
| 2026-05-03 21:48 | 33.64679 | -84.42386 | 1396 ft | 192 kts | 271° |
| 2026-05-03 21:49 | 33.64674 | -84.44373 | 1818 ft | 262 kts | 270° |
| 2026-05-03 21:49 | 33.64672 | -84.46473 | 2329 ft | 265 kts | 274° |
| 2026-05-03 21:49 | 33.65035 | -84.48707 | 2992 ft | 262 kts | 282° |
| 2026-05-03 21:49 | 33.65458 | -84.50840 | 3616 ft | 264 kts | 284° |
| 2026-05-03 21:50 | 33.65888 | -84.52933 | 4229 ft | 266 kts | 284° |
| 2026-05-03 21:50 | 33.66324 | -84.55035 | 4840 ft | 268 kts | 284° |
| 2026-05-03 21:50 | 33.66734 | -84.57210 | 5460 ft | 270 kts | 274° |
| 2026-05-03 21:50 | 33.66354 | -84.59198 | 6080 ft | 273 kts | 239° |
| 2026-05-03 21:51 | 33.65015 | -84.60754 | 6751 ft | 276 kts | 206° |
| 2026-05-03 21:51 | 33.63168 | -84.61182 | 7420 ft | 279 kts | 173° |
| 2026-05-03 21:51 | 33.61396 | -84.60355 | 8088 ft | 282 kts | 146° |
| 2026-05-03 21:51 | 33.59915 | -84.58912 | 8710 ft | 285 kts | 137° |
| 2026-05-03 21:52 | 33.58501 | -84.57259 | 9560 ft | 285 kts | 135° |
| 2026-05-03 21:52 | 33.57095 | -84.55574 | 10544 ft | 291 kts | 135° |
| 2026-05-03 21:52 | 33.55642 | -84.53827 | 11540 ft | 296 kts | 135° |
| 2026-05-03 21:52 | 33.54159 | -84.52045 | 12538 ft | 300 kts | 135° |
| 2026-05-03 21:53 | 33.52648 | -84.50228 | 13540 ft | 305 kts | 135° |
| 2026-05-03 21:53 | 33.51130 | -84.48405 | 14531 ft | 309 kts | 135° |
| 2026-05-03 21:53 | 33.49596 | -84.46561 | 15518 ft | 323 kts | 135° |
| 2026-05-03 21:53 | 33.47899 | -84.44525 | 16540 ft | 363 kts | 135° |
| 2026-05-03 21:54 | 33.46029 | -84.42282 | 17549 ft | 390 kts | 135° |
| 2026-05-03 21:54 | 33.44082 | -84.39948 | 18542 ft | 395 kts | 135° |
| 2026-05-03 21:54 | 33.42134 | -84.37615 | 19523 ft | 398 kts | 135° |
| 2026-05-03 21:54 | 33.40176 | -84.35272 | 20500 ft | 403 kts | 135° |
| 2026-05-03 21:55 | 33.38162 | -84.32863 | 21491 ft | 409 kts | 135° |
| 2026-05-03 21:55 | 33.36125 | -84.30428 | 22478 ft | 416 kts | 135° |
| 2026-05-03 21:55 | 33.34050 | -84.27949 | 23469 ft | 422 kts | 135° |
| 2026-05-03 21:55 | 33.31956 | -84.25450 | 24453 ft | 428 kts | 135° |
| 2026-05-03 21:56 | 33.29812 | -84.22892 | 25446 ft | 435 kts | 135° |
| 2026-05-03 21:56 | 33.27650 | -84.20315 | 26432 ft | 441 kts | 135° |
| 2026-05-03 21:56 | 33.25451 | -84.17696 | 27420 ft | 448 kts | 135° |
| 2026-05-03 21:56 | 33.23214 | -84.15035 | 28409 ft | 454 kts | 135° |
| 2026-05-03 21:57 | 33.20957 | -84.12350 | 29393 ft | 461 kts | 135° |
| 2026-05-03 21:57 | 33.18661 | -84.09622 | 30379 ft | 468 kts | 135° |
| 2026-05-03 21:57 | 33.16342 | -84.06869 | 31360 ft | 475 kts | 135° |
| 2026-05-03 21:57 | 33.13937 | -84.04015 | 32362 ft | 482 kts | 135° |
| 2026-05-03 21:58 | 33.11558 | -84.01196 | 33339 ft | 488 kts | 135° |
| 2026-05-03 21:58 | 33.09076 | -83.98274 | 34342 ft | 489 kts | 138° |
| 2026-05-03 21:58 | 33.06364 | -83.95808 | 35346 ft | 486 kts | 144° |
| 2026-05-03 21:58 | 33.03713 | -83.93546 | 36284 ft | 485 kts | 144° |
| 2026-05-03 21:59 | 33.00947 | -83.91222 | 36829 ft | 491 kts | 145° |
| 2026-05-03 21:59 | 32.98117 | -83.88852 | 37311 ft | 494 kts | 145° |
| 2026-05-03 21:59 | 32.95301 | -83.86499 | 37786 ft | 495 kts | 145° |
| 2026-05-03 21:59 | 32.92469 | -83.84133 | 38263 ft | 495 kts | 145° |
| 2026-05-03 22:00 | 32.89605 | -83.81744 | 38744 ft | 494 kts | 145° |
| 2026-05-03 22:00 | 32.87413 | -83.79916 | 39067 ft | 495 kts | 145° |
| 2026-05-03 22:00 | 32.84285 | -83.77310 | 39481 ft | 495 kts | 145° |
| 2026-05-03 22:00 | 32.81454 | -83.74953 | 39856 ft | 495 kts | 145° |
| 2026-05-03 22:01 | 32.78639 | -83.72611 | 40229 ft | 494 kts | 145° |
| 2026-05-03 22:01 | 32.75794 | -83.70246 | 40607 ft | 493 kts | 145° |
| 2026-05-03 22:01 | 32.72958 | -83.67891 | 40984 ft | 492 kts | 145° |
| 2026-05-03 22:01 | 32.70132 | -83.65546 | 41360 ft | 491 kts | 145° |
| 2026-05-03 22:02 | 32.67372 | -83.63156 | 41734 ft | 489 kts | 143° |
| 2026-05-03 22:02 | 32.64614 | -83.60719 | 42111 ft | 488 kts | 143° |
| 2026-05-03 22:02 | 32.62003 | -83.58413 | 42469 ft | 486 kts | 143° |
| 2026-05-03 22:02 | 32.59304 | -83.56029 | 42839 ft | 485 kts | 143° |
| 2026-05-03 22:03 | 32.56565 | -83.53613 | 42978 ft | 489 kts | 143° |
| 2026-05-03 22:03 | 32.53825 | -83.51198 | 42998 ft | 493 kts | 143° |
| 2026-05-03 22:03 | 32.48239 | -83.46278 | 43001 ft | 496 kts | 143° |
| 2026-05-03 22:04 | 32.42630 | -83.41348 | 43000 ft | 497 kts | 143° |
| 2026-05-03 22:04 | 32.37005 | -83.36410 | 42999 ft | 498 kts | 143° |
| 2026-05-03 22:05 | 32.31516 | -83.31600 | 42999 ft | 498 kts | 143° |
| 2026-05-03 22:05 | 32.25908 | -83.26692 | 42999 ft | 498 kts | 143° |
| 2026-05-03 22:06 | 32.20265 | -83.21762 | 42999 ft | 498 kts | 143° |
| 2026-05-03 22:06 | 32.14618 | -83.16836 | 42999 ft | 498 kts | 143° |
| 2026-05-03 22:07 | 32.08968 | -83.11916 | 42999 ft | 498 kts | 143° |
| 2026-05-03 22:07 | 32.03348 | -83.07030 | 42999 ft | 498 kts | 143° |
| 2026-05-03 22:08 | 31.97716 | -83.02140 | 43000 ft | 498 kts | 143° |
| 2026-05-03 22:08 | 31.92095 | -82.97267 | 43000 ft | 498 kts | 143° |
| 2026-05-03 22:09 | 31.86578 | -82.92493 | 42999 ft | 498 kts | 143° |
| 2026-05-03 22:10 | 31.78281 | -82.85268 | 43000 ft | 498 kts | 141° |
| 2026-05-03 22:10 | 31.72894 | -82.80141 | 43000 ft | 498 kts | 141° |
| 2026-05-03 22:11 | 31.67459 | -82.74978 | 42999 ft | 498 kts | 141° |
| 2026-05-03 22:11 | 31.62038 | -82.69836 | 42999 ft | 498 kts | 141° |
| 2026-05-03 22:12 | 31.56714 | -82.64796 | 42999 ft | 498 kts | 141° |
| 2026-05-03 22:12 | 31.51241 | -82.59621 | 43000 ft | 498 kts | 141° |
| 2026-05-03 22:13 | 31.45808 | -82.54492 | 42999 ft | 498 kts | 141° |
| 2026-05-03 22:13 | 31.40378 | -82.49374 | 43000 ft | 499 kts | 141° |
| 2026-05-03 22:14 | 31.35011 | -82.44323 | 43000 ft | 499 kts | 141° |
| 2026-05-03 22:14 | 31.29581 | -82.39220 | 42999 ft | 499 kts | 141° |
| 2026-05-03 22:15 | 31.24318 | -82.34282 | 43000 ft | 499 kts | 141° |
| 2026-05-03 22:15 | 31.18832 | -82.29144 | 42999 ft | 499 kts | 141° |
| 2026-05-03 22:16 | 31.13356 | -82.24020 | 42999 ft | 499 kts | 141° |
| 2026-05-03 22:16 | 31.07909 | -82.18933 | 42999 ft | 499 kts | 141° |
| 2026-05-03 22:17 | 31.02459 | -82.13850 | 43000 ft | 499 kts | 141° |
| 2026-05-03 22:17 | 30.97032 | -82.08797 | 42999 ft | 499 kts | 141° |
| 2026-05-03 22:18 | 30.91601 | -82.03747 | 43000 ft | 499 kts | 141° |
| 2026-05-03 22:18 | 30.86169 | -81.98703 | 42999 ft | 499 kts | 141° |
| 2026-05-03 22:19 | 30.80685 | -81.93619 | 43000 ft | 499 kts | 141° |
| 2026-05-03 22:19 | 30.75204 | -81.88547 | 43000 ft | 499 kts | 141° |
| 2026-05-03 22:20 | 30.69680 | -81.83441 | 43000 ft | 499 kts | 141° |
| 2026-05-03 22:20 | 30.64291 | -81.78468 | 42999 ft | 499 kts | 141° |
| 2026-05-03 22:21 | 30.58719 | -81.73734 | 43002 ft | 499 kts | 145° |
| 2026-05-03 22:21 | 30.52996 | -81.69122 | 43000 ft | 499 kts | 145° |
| 2026-05-03 22:22 | 30.47222 | -81.64468 | 43000 ft | 499 kts | 145° |
| 2026-05-03 22:22 | 30.41570 | -81.59920 | 43000 ft | 499 kts | 145° |
| 2026-05-03 22:23 | 30.35881 | -81.55350 | 43000 ft | 500 kts | 145° |
| 2026-05-03 22:23 | 30.30123 | -81.50730 | 42999 ft | 499 kts | 145° |
| 2026-05-03 22:24 | 30.24383 | -81.46131 | 42999 ft | 499 kts | 145° |
| 2026-05-03 22:24 | 30.18577 | -81.41486 | 43000 ft | 499 kts | 145° |
| 2026-05-03 22:25 | 30.12834 | -81.36899 | 43000 ft | 499 kts | 145° |
| 2026-05-03 22:25 | 30.07131 | -81.32350 | 42999 ft | 500 kts | 146° |
| 2026-05-03 22:26 | 30.01343 | -81.27741 | 43000 ft | 499 kts | 146° |
| 2026-05-03 22:26 | 29.97123 | -81.24384 | 43000 ft | 499 kts | 146° |
| 2026-05-03 22:27 | 29.93150 | -81.21151 | 43117 ft | 503 kts | 154° |
| 2026-05-03 22:27 | 29.87241 | -81.16535 | 43129 ft | 515 kts | 153° |
| 2026-05-03 22:28 | 29.81207 | -81.11945 | 43131 ft | 508 kts | 161° |
| 2026-05-03 22:28 | 29.74756 | -81.08770 | 43128 ft | 505 kts | 165° |
| 2026-05-03 22:29 | 29.68268 | -81.05591 | 43118 ft | 505 kts | 165° |
| 2026-05-03 22:29 | 29.61739 | -81.02394 | 43113 ft | 505 kts | 165° |
| 2026-05-03 22:30 | 29.55227 | -80.99210 | 43109 ft | 504 kts | 165° |
| 2026-05-03 22:30 | 29.48762 | -80.96053 | 43107 ft | 503 kts | 165° |
| 2026-05-03 22:31 | 29.42236 | -80.92871 | 43103 ft | 503 kts | 165° |
| 2026-05-03 22:31 | 29.35748 | -80.89713 | 43102 ft | 502 kts | 165° |
| 2026-05-03 22:32 | 29.29335 | -80.86595 | 43101 ft | 501 kts | 165° |
| 2026-05-03 22:32 | 29.22828 | -80.83436 | 43098 ft | 501 kts | 165° |
| 2026-05-03 22:33 | 29.16899 | -80.80561 | 43095 ft | 501 kts | 165° |
| 2026-05-03 22:33 | 29.10510 | -80.77467 | 43093 ft | 501 kts | 165° |
| 2026-05-03 22:34 | 29.04067 | -80.74351 | 43093 ft | 501 kts | 165° |
| 2026-05-03 22:34 | 28.97680 | -80.71267 | 43092 ft | 501 kts | 166° |
| 2026-05-03 22:35 | 28.91184 | -80.68333 | 43088 ft | 500 kts | 167° |
| 2026-05-03 22:35 | 28.84944 | -80.65540 | 43083 ft | 500 kts | 167° |
| 2026-05-03 22:36 | 28.78492 | -80.62656 | 43072 ft | 500 kts | 167° |
| 2026-05-03 22:36 | 28.71969 | -80.59744 | 43070 ft | 500 kts | 167° |
| 2026-05-03 22:37 | 28.65577 | -80.56889 | 43054 ft | 478 kts | 167° |
| 2026-05-03 22:37 | 28.62596 | -80.55557 | 43044 ft | 453 kts | 168° |
| 2026-05-03 22:37 | 28.59599 | -80.54235 | 43001 ft | 466 kts | 168° |
| 2026-05-03 22:37 | 28.56527 | -80.52872 | 43012 ft | 478 kts | 167° |
| 2026-05-03 22:38 | 28.53395 | -80.51480 | 43049 ft | 486 kts | 167° |
| 2026-05-03 22:38 | 28.47036 | -80.48654 | 43048 ft | 496 kts | 167° |
| 2026-05-03 22:39 | 28.40562 | -80.45782 | 43045 ft | 499 kts | 167° |
| 2026-05-03 22:39 | 28.34166 | -80.42948 | 43045 ft | 500 kts | 167° |
| 2026-05-03 22:40 | 28.27599 | -80.40044 | 43045 ft | 500 kts | 167° |
| 2026-05-03 22:40 | 28.21348 | -80.37274 | 42757 ft | 475 kts | 167° |
| 2026-05-03 22:40 | 28.18224 | -80.35907 | 42329 ft | 492 kts | 167° |
| 2026-05-03 22:41 | 28.15345 | -80.34639 | 41948 ft | 503 kts | 167° |
| 2026-05-03 22:41 | 28.11770 | -80.33061 | 41392 ft | 505 kts | 167° |
| 2026-05-03 22:41 | 28.08579 | -80.31694 | 40807 ft | 499 kts | 169° |
| 2026-05-03 22:41 | 28.05274 | -80.30402 | 40023 ft | 491 kts | 169° |
| 2026-05-03 22:42 | 28.02215 | -80.29204 | 39288 ft | 484 kts | 170° |
| 2026-05-03 22:42 | 27.99137 | -80.28001 | 38540 ft | 484 kts | 170° |
| 2026-05-03 22:42 | 27.95866 | -80.26728 | 37777 ft | 494 kts | 169° |
| 2026-05-03 22:42 | 27.92625 | -80.25460 | 37015 ft | 492 kts | 169° |
| 2026-05-03 22:43 | 27.89614 | -80.24283 | 36297 ft | 485 kts | 170° |
| 2026-05-03 22:43 | 27.86388 | -80.23023 | 35524 ft | 478 kts | 170° |
| 2026-05-03 22:43 | 27.83248 | -80.21800 | 34761 ft | 472 kts | 170° |
| 2026-05-03 22:43 | 27.80176 | -80.20603 | 34005 ft | 466 kts | 170° |
| 2026-05-03 22:44 | 27.77188 | -80.19441 | 33261 ft | 461 kts | 170° |
| 2026-05-03 22:44 | 27.74279 | -80.18311 | 32532 ft | 455 kts | 170° |
| 2026-05-03 22:44 | 27.71310 | -80.17155 | 32063 ft | 445 kts | 170° |
| 2026-05-03 22:44 | 27.68442 | -80.16040 | 31687 ft | 439 kts | 170° |
| 2026-05-03 22:45 | 27.65653 | -80.14959 | 31321 ft | 440 kts | 170° |
| 2026-05-03 22:45 | 27.62724 | -80.13824 | 30942 ft | 442 kts | 169° |
| 2026-05-03 22:45 | 27.59839 | -80.12645 | 30567 ft | 444 kts | 168° |
| 2026-05-03 22:45 | 27.56945 | -80.11453 | 30189 ft | 442 kts | 168° |
| 2026-05-03 22:46 | 27.54019 | -80.10246 | 29804 ft | 439 kts | 168° |
| 2026-05-03 22:46 | 27.51136 | -80.09058 | 29420 ft | 436 kts | 168° |
| 2026-05-03 22:46 | 27.48284 | -80.07883 | 29039 ft | 433 kts | 168° |
| 2026-05-03 22:46 | 27.45504 | -80.06738 | 28665 ft | 431 kts | 168° |
| 2026-05-03 22:47 | 27.42775 | -80.05616 | 28298 ft | 429 kts | 168° |
| 2026-05-03 22:47 | 27.40002 | -80.04476 | 27923 ft | 427 kts | 167° |
| 2026-05-03 22:47 | 27.37272 | -80.03285 | 27549 ft | 425 kts | 167° |
| 2026-05-03 22:47 | 27.34403 | -80.02505 | 27188 ft | 415 kts | 174° |
| 2026-05-03 22:48 | 27.31617 | -80.01718 | 26817 ft | 416 kts | 173° |
| 2026-05-03 22:48 | 27.28792 | -80.00874 | 26435 ft | 415 kts | 172° |
| 2026-05-03 22:48 | 27.25984 | -80.00017 | 26052 ft | 413 kts | 171° |
| 2026-05-03 22:48 | 27.23334 | -79.99075 | 25689 ft | 412 kts | 169° |
| 2026-05-03 22:49 | 27.20811 | -79.98166 | 25284 ft | 412 kts | 169° |
| 2026-05-03 22:49 | 27.18081 | -79.97182 | 24779 ft | 410 kts | 169° |
| 2026-05-03 22:49 | 27.15431 | -79.96225 | 24286 ft | 407 kts | 168° |
| 2026-05-03 22:49 | 27.12741 | -79.95252 | 24067 ft | 397 kts | 168° |
| 2026-05-03 22:50 | 27.10243 | -79.94351 | 24041 ft | 395 kts | 169° |
| 2026-05-03 22:50 | 27.07633 | -79.93412 | 24039 ft | 400 kts | 168° |
| 2026-05-03 22:50 | 27.04951 | -79.92354 | 24039 ft | 406 kts | 167° |
| 2026-05-03 22:50 | 27.02277 | -79.91277 | 24037 ft | 406 kts | 166° |
| 2026-05-03 22:51 | 26.99617 | -79.90207 | 24036 ft | 407 kts | 166° |
| 2026-05-03 22:51 | 26.96932 | -79.89124 | 24036 ft | 407 kts | 165° |
| 2026-05-03 22:51 | 26.94229 | -79.88035 | 24036 ft | 407 kts | 165° |
| 2026-05-03 22:51 | 26.91540 | -79.86951 | 24037 ft | 408 kts | 165° |
| 2026-05-03 22:52 | 26.88825 | -79.85857 | 24037 ft | 408 kts | 164° |
| 2026-05-03 22:52 | 26.86133 | -79.84772 | 24037 ft | 408 kts | 164° |
| 2026-05-03 22:52 | 26.83397 | -79.83667 | 24037 ft | 408 kts | 164° |
| 2026-05-03 22:52 | 26.80703 | -79.82583 | 24037 ft | 408 kts | 164° |
| 2026-05-03 22:53 | 26.78015 | -79.81502 | 24037 ft | 408 kts | 164° |
| 2026-05-03 22:53 | 26.75405 | -79.80452 | 24037 ft | 408 kts | 164° |
| 2026-05-03 22:53 | 26.72801 | -79.79406 | 23920 ft | 411 kts | 164° |
| 2026-05-03 22:53 | 26.70231 | -79.78371 | 23215 ft | 417 kts | 162° |
| 2026-05-03 22:54 | 26.67644 | -79.77142 | 22488 ft | 414 kts | 160° |
| 2026-05-03 22:54 | 26.65054 | -79.75899 | 21750 ft | 411 kts | 160° |
| 2026-05-03 22:54 | 26.62408 | -79.74935 | 21019 ft | 399 kts | 177° |
| 2026-05-03 22:54 | 26.59730 | -79.75204 | 20321 ft | 385 kts | 200° |
| 2026-05-03 22:55 | 26.57286 | -79.76177 | 19603 ft | 381 kts | 203° |
| 2026-05-03 22:55 | 26.55039 | -79.77464 | 18864 ft | 361 kts | 223° |
| 2026-05-03 22:55 | 26.53339 | -79.79163 | 18102 ft | 310 kts | 223° |
| 2026-05-03 22:55 | 26.51874 | -79.80641 | 17368 ft | 295 kts | 224° |
| 2026-05-03 22:56 | 26.50411 | -79.82150 | 16717 ft | 317 kts | 225° |
| 2026-05-03 22:56 | 26.48845 | -79.83826 | 16001 ft | 324 kts | 226° |
| 2026-05-03 22:56 | 26.47426 | -79.85414 | 15338 ft | 328 kts | 226° |
| 2026-05-03 22:56 | 26.45747 | -79.87287 | 14563 ft | 332 kts | 225° |
| 2026-05-03 22:57 | 26.43805 | -79.88614 | 13847 ft | 336 kts | 196° |
| 2026-05-03 22:57 | 26.41773 | -79.88787 | 13230 ft | 339 kts | 172° |
| 2026-05-03 22:57 | 26.39601 | -79.87704 | 13085 ft | 321 kts | 141° |
| 2026-05-03 22:57 | 26.38041 | -79.86047 | 13099 ft | 301 kts | 122° |
| 2026-05-03 22:58 | 26.37422 | -79.83910 | 13125 ft | 297 kts | 90° |
| 2026-05-03 22:58 | 26.37876 | -79.81690 | 13133 ft | 303 kts | 59° |
| 2026-05-03 22:58 | 26.39299 | -79.79999 | 13133 ft | 304 kts | 29° |
| 2026-05-03 22:58 | 26.41179 | -79.79033 | 13116 ft | 304 kts | 21° |
| 2026-05-03 22:59 | 26.43014 | -79.78178 | 13103 ft | 303 kts | 21° |
| 2026-05-03 22:59 | 26.44969 | -79.77273 | 13101 ft | 302 kts | 21° |
| 2026-05-03 22:59 | 26.46914 | -79.76372 | 13101 ft | 302 kts | 21° |
| 2026-05-03 22:59 | 26.48883 | -79.75462 | 13101 ft | 302 kts | 21° |
| 2026-05-03 23:00 | 26.50735 | -79.74605 | 13101 ft | 302 kts | 21° |
| 2026-05-03 23:00 | 26.52666 | -79.73712 | 13101 ft | 302 kts | 21° |
| 2026-05-03 23:00 | 26.54638 | -79.72987 | 13108 ft | 299 kts | 2° |
| 2026-05-03 23:00 | 26.56643 | -79.73380 | 13128 ft | 298 kts | 339° |
| 2026-05-03 23:01 | 26.58583 | -79.74136 | 13107 ft | 299 kts | 340° |
| 2026-05-03 23:01 | 26.60543 | -79.74891 | 13102 ft | 298 kts | 340° |
| 2026-05-03 23:01 | 26.62540 | -79.75649 | 13101 ft | 298 kts | 340° |
| 2026-05-03 23:01 | 26.64429 | -79.76356 | 13101 ft | 298 kts | 340° |
| 2026-05-03 23:02 | 26.66411 | -79.77080 | 13101 ft | 298 kts | 341° |
| 2026-05-03 23:02 | 26.68347 | -79.77763 | 13101 ft | 298 kts | 342° |
| 2026-05-03 23:02 | 26.70302 | -79.78374 | 13100 ft | 298 kts | 349° |
| 2026-05-03 23:02 | 26.72260 | -79.78162 | 13128 ft | 301 kts | 21° |
| 2026-05-03 23:03 | 26.74008 | -79.76685 | 13131 ft | 306 kts | 53° |
| 2026-05-03 23:03 | 26.74794 | -79.74487 | 13131 ft | 307 kts | 84° |
| 2026-05-03 23:03 | 26.74473 | -79.72111 | 13131 ft | 307 kts | 115° |
| 2026-05-03 23:03 | 26.73136 | -79.70273 | 13131 ft | 305 kts | 147° |
| 2026-05-03 23:04 | 26.71167 | -79.69457 | 13131 ft | 302 kts | 178° |
| 2026-05-03 23:04 | 26.69156 | -79.69861 | 13132 ft | 299 kts | 205° |
| 2026-05-03 23:04 | 26.67358 | -79.70807 | 13110 ft | 300 kts | 206° |
| 2026-05-03 23:04 | 26.65494 | -79.71787 | 13103 ft | 299 kts | 206° |
| 2026-05-03 23:05 | 26.63606 | -79.72780 | 13101 ft | 299 kts | 206° |
| 2026-05-03 23:05 | 26.61819 | -79.73721 | 13101 ft | 299 kts | 206° |
| 2026-05-03 23:05 | 26.59956 | -79.74702 | 13101 ft | 299 kts | 206° |
| 2026-05-03 23:05 | 26.58089 | -79.75684 | 13101 ft | 299 kts | 206° |
| 2026-05-03 23:06 | 26.56508 | -79.76517 | 13101 ft | 299 kts | 206° |
| 2026-05-03 23:06 | 26.54489 | -79.77603 | 13099 ft | 298 kts | 213° |
| 2026-05-03 23:06 | 26.53122 | -79.79291 | 13129 ft | 295 kts | 246° |
| 2026-05-03 23:06 | 26.52769 | -79.81496 | 13131 ft | 295 kts | 277° |
| 2026-05-03 23:07 | 26.53438 | -79.83517 | 13131 ft | 296 kts | 306° |
| 2026-05-03 23:07 | 26.54897 | -79.84892 | 13131 ft | 297 kts | 335° |
| 2026-05-03 23:07 | 26.56917 | -79.85290 | 13131 ft | 301 kts | 6° |
| 2026-05-03 23:07 | 26.58912 | -79.84527 | 13125 ft | 303 kts | 24° |
| 2026-05-03 23:08 | 26.60718 | -79.83562 | 13106 ft | 303 kts | 24° |
| 2026-05-03 23:08 | 26.62639 | -79.82521 | 13102 ft | 303 kts | 25° |
| 2026-05-03 23:08 | 26.64533 | -79.81481 | 13101 ft | 302 kts | 25° |
| 2026-05-03 23:08 | 26.66413 | -79.80431 | 13101 ft | 303 kts | 25° |
| 2026-05-03 23:09 | 26.68294 | -79.79352 | 13101 ft | 303 kts | 26° |
| 2026-05-03 23:09 | 26.70136 | -79.78220 | 13100 ft | 303 kts | 32° |
| 2026-05-03 23:09 | 26.71447 | -79.76654 | 13126 ft | 305 kts | 62° |
| 2026-05-03 23:09 | 26.71923 | -79.74313 | 13131 ft | 307 kts | 94° |
| 2026-05-03 23:10 | 26.71274 | -79.72038 | 13131 ft | 307 kts | 125° |
| 2026-05-03 23:10 | 26.69685 | -79.70451 | 13131 ft | 305 kts | 156° |
| 2026-05-03 23:10 | 26.67624 | -79.70004 | 13131 ft | 301 kts | 187° |
| 2026-05-03 23:10 | 26.65664 | -79.70721 | 13126 ft | 299 kts | 206° |
| 2026-05-03 23:11 | 26.63753 | -79.71726 | 13106 ft | 300 kts | 206° |
| 2026-05-03 23:11 | 26.61880 | -79.72711 | 13102 ft | 299 kts | 206° |
| 2026-05-03 23:11 | 26.59972 | -79.73716 | 13101 ft | 299 kts | 206° |
| 2026-05-03 23:11 | 26.58041 | -79.74731 | 13101 ft | 299 kts | 206° |
| 2026-05-03 23:12 | 26.56161 | -79.75722 | 13106 ft | 299 kts | 206° |
| 2026-05-03 23:12 | 26.54259 | -79.76723 | 13109 ft | 299 kts | 206° |
| 2026-05-03 23:12 | 26.52564 | -79.77616 | 13109 ft | 299 kts | 206° |
| 2026-05-03 23:12 | 26.50840 | -79.78826 | 13121 ft | 295 kts | 230° |
| 2026-05-03 23:13 | 26.49929 | -79.80833 | 13136 ft | 295 kts | 261° |
| 2026-05-03 23:13 | 26.50096 | -79.83118 | 13137 ft | 295 kts | 291° |
| 2026-05-03 23:13 | 26.51337 | -79.84979 | 13137 ft | 296 kts | 323° |
| 2026-05-03 23:13 | 26.53220 | -79.85821 | 13138 ft | 299 kts | 354° |
| 2026-05-03 23:14 | 26.55105 | -79.85535 | 13139 ft | 302 kts | 20° |
| 2026-05-03 23:14 | 26.57150 | -79.84598 | 13118 ft | 303 kts | 21° |
| 2026-05-03 23:14 | 26.59116 | -79.83684 | 13110 ft | 302 kts | 21° |
| 2026-05-03 23:14 | 26.61075 | -79.82764 | 13108 ft | 302 kts | 21° |
| 2026-05-03 23:15 | 26.63044 | -79.81827 | 13107 ft | 302 kts | 22° |
| 2026-05-03 23:15 | 26.64875 | -79.80942 | 13106 ft | 302 kts | 22° |
| 2026-05-03 23:15 | 26.66863 | -79.79960 | 13105 ft | 302 kts | 23° |
| 2026-05-03 23:15 | 26.68806 | -79.78966 | 13104 ft | 302 kts | 24° |
| 2026-05-03 23:16 | 26.70668 | -79.77834 | 13104 ft | 303 kts | 39° |
| 2026-05-03 23:16 | 26.71857 | -79.75923 | 13117 ft | 306 kts | 71° |
| 2026-05-03 23:16 | 26.72019 | -79.73545 | 13113 ft | 307 kts | 102° |
| 2026-05-03 23:16 | 26.71092 | -79.71417 | 13113 ft | 306 kts | 133° |
| 2026-05-03 23:17 | 26.69359 | -79.70120 | 13113 ft | 304 kts | 163° |
| 2026-05-03 23:17 | 26.67260 | -79.69992 | 13115 ft | 300 kts | 195° |
| 2026-05-03 23:17 | 26.65352 | -79.70875 | 13104 ft | 300 kts | 206° |
| 2026-05-03 23:17 | 26.63452 | -79.71872 | 13090 ft | 299 kts | 206° |
| 2026-05-03 23:18 | 26.61552 | -79.72871 | 13089 ft | 299 kts | 206° |
| 2026-05-03 23:18 | 26.59648 | -79.73872 | 13089 ft | 298 kts | 206° |
| 2026-05-03 23:18 | 26.57770 | -79.74860 | 13091 ft | 299 kts | 206° |
| 2026-05-03 23:18 | 26.55934 | -79.75826 | 13092 ft | 299 kts | 206° |
| 2026-05-03 23:19 | 26.54105 | -79.76788 | 13092 ft | 299 kts | 206° |
| 2026-05-03 23:19 | 26.52184 | -79.77801 | 13090 ft | 298 kts | 207° |
| 2026-05-03 23:19 | 26.50607 | -79.79296 | 13114 ft | 295 kts | 239° |
| 2026-05-03 23:19 | 26.50020 | -79.81467 | 13118 ft | 295 kts | 270° |
| 2026-05-03 23:20 | 26.50550 | -79.83691 | 13118 ft | 295 kts | 302° |
| 2026-05-03 23:20 | 26.52036 | -79.85258 | 13119 ft | 297 kts | 333° |
| 2026-05-03 23:20 | 26.54046 | -79.85736 | 13120 ft | 300 kts | 4° |
| 2026-05-03 23:20 | 26.56040 | -79.85081 | 13114 ft | 303 kts | 21° |
| 2026-05-03 23:21 | 26.58006 | -79.84177 | 13095 ft | 303 kts | 21° |
| 2026-05-03 23:21 | 26.59965 | -79.83266 | 13091 ft | 302 kts | 21° |
| 2026-05-03 23:21 | 26.61925 | -79.82344 | 13089 ft | 302 kts | 21° |
| 2026-05-03 23:21 | 26.63850 | -79.81426 | 13088 ft | 302 kts | 22° |
| 2026-05-03 23:22 | 26.67707 | -79.79529 | 13086 ft | 302 kts | 23° |
| 2026-05-03 23:22 | 26.69618 | -79.78528 | 13085 ft | 302 kts | 25° |
| 2026-05-03 23:22 | 26.71270 | -79.77142 | 13102 ft | 304 kts | 53° |
| 2026-05-03 23:23 | 26.72061 | -79.74985 | 13112 ft | 307 kts | 84° |
| 2026-05-03 23:23 | 26.71768 | -79.72617 | 13112 ft | 307 kts | 115° |
| 2026-05-03 23:23 | 26.70470 | -79.70769 | 13113 ft | 305 kts | 145° |
| 2026-05-03 23:23 | 26.68489 | -79.69906 | 13114 ft | 302 kts | 177° |
| 2026-05-03 23:24 | 26.66443 | -79.70296 | 13115 ft | 299 kts | 205° |
| 2026-05-03 23:24 | 26.64530 | -79.71300 | 13095 ft | 300 kts | 206° |
| 2026-05-03 23:24 | 26.62620 | -79.72304 | 13089 ft | 299 kts | 206° |
| 2026-05-03 23:24 | 26.60717 | -79.73305 | 13089 ft | 298 kts | 206° |
| 2026-05-03 23:25 | 26.58996 | -79.74211 | 13089 ft | 298 kts | 207° |
| 2026-05-03 23:25 | 26.57274 | -79.75539 | 13098 ft | 297 kts | 218° |
| 2026-05-03 23:25 | 26.55795 | -79.76813 | 13055 ft | 295 kts | 219° |
| 2026-05-03 23:25 | 26.54159 | -79.78249 | 12739 ft | 321 kts | 219° |
| 2026-05-03 23:26 | 26.52366 | -79.79835 | 12398 ft | 343 kts | 219° |
| 2026-05-03 23:26 | 26.50483 | -79.81503 | 12040 ft | 361 kts | 219° |
| 2026-05-03 23:26 | 26.48511 | -79.83250 | 11671 ft | 363 kts | 219° |
| 2026-05-03 23:26 | 26.46517 | -79.85017 | 11287 ft | 357 kts | 219° |
| 2026-05-03 23:27 | 26.44597 | -79.86719 | 10911 ft | 352 kts | 219° |
| 2026-05-03 23:27 | 26.42719 | -79.88384 | 10351 ft | 355 kts | 219° |
| 2026-05-03 23:27 | 26.40894 | -79.90000 | 9544 ft | 356 kts | 219° |
| 2026-05-03 23:27 | 26.39132 | -79.91560 | 8757 ft | 351 kts | 219° |
| 2026-05-03 23:28 | 26.37126 | -79.92985 | 8184 ft | 342 kts | 213° |
| 2026-05-03 23:28 | 26.35171 | -79.94292 | 8088 ft | 321 kts | 211° |
| 2026-05-03 23:28 | 26.33313 | -79.95492 | 8070 ft | 300 kts | 211° |
| 2026-05-03 23:28 | 26.31555 | -79.96621 | 8066 ft | 281 kts | 211° |
| 2026-05-03 23:29 | 26.29948 | -79.97652 | 8042 ft | 254 kts | 211° |
| 2026-05-03 23:29 | 26.28440 | -79.98619 | 8063 ft | 238 kts | 211° |
| 2026-05-03 23:29 | 26.27033 | -79.99522 | 8066 ft | 233 kts | 211° |
| 2026-05-03 23:29 | 26.25594 | -80.00449 | 8072 ft | 237 kts | 211° |
| 2026-05-03 23:30 | 26.24170 | -80.01363 | 8072 ft | 240 kts | 211° |
| 2026-05-03 23:30 | 26.22706 | -80.02304 | 8069 ft | 241 kts | 211° |
| 2026-05-03 23:30 | 26.21261 | -80.03232 | 8066 ft | 240 kts | 211° |
| 2026-05-03 23:30 | 26.19798 | -80.04172 | 8065 ft | 240 kts | 211° |
| 2026-05-03 23:31 | 26.18447 | -80.05190 | 8066 ft | 237 kts | 232° |
| 2026-05-03 23:31 | 26.17665 | -80.06801 | 8078 ft | 237 kts | 249° |
| 2026-05-03 23:31 | 26.17083 | -80.08536 | 8064 ft | 238 kts | 251° |
| 2026-05-03 23:31 | 26.16542 | -80.10287 | 8061 ft | 237 kts | 252° |
| 2026-05-03 23:32 | 26.16018 | -80.12013 | 8060 ft | 236 kts | 252° |
| 2026-05-03 23:32 | 26.15483 | -80.13780 | 8060 ft | 236 kts | 252° |
| 2026-05-03 23:32 | 26.15079 | -80.15568 | 8065 ft | 234 kts | 269° |
| 2026-05-03 23:32 | 26.15043 | -80.17386 | 8063 ft | 236 kts | 270° |
| 2026-05-03 23:33 | 26.15039 | -80.19242 | 8059 ft | 236 kts | 271° |
| 2026-05-03 23:33 | 26.15045 | -80.21091 | 8058 ft | 236 kts | 271° |
| 2026-05-03 23:33 | 26.15052 | -80.22906 | 8059 ft | 235 kts | 271° |
| 2026-05-03 23:33 | 26.15059 | -80.24471 | 8059 ft | 235 kts | 271° |
| 2026-05-03 23:34 | 26.15068 | -80.26515 | 8002 ft | 235 kts | 271° |
| 2026-05-03 23:34 | 26.15073 | -80.27782 | 7999 ft | 235 kts | 271° |
| 2026-05-03 23:34 | 26.15081 | -80.29723 | 7602 ft | 245 kts | 271° |
| 2026-05-03 23:34 | 26.15089 | -80.31823 | 7193 ft | 246 kts | 271° |
| 2026-05-03 23:35 | 26.15096 | -80.33743 | 6818 ft | 247 kts | 271° |
| 2026-05-03 23:35 | 26.15081 | -80.35624 | 6451 ft | 248 kts | 270° |
| 2026-05-03 23:35 | 26.15056 | -80.37461 | 6095 ft | 249 kts | 270° |
| 2026-05-03 23:35 | 26.15032 | -80.39253 | 5987 ft | 239 kts | 270° |
| 2026-05-03 23:36 | 26.15007 | -80.41177 | 5669 ft | 238 kts | 270° |
| 2026-05-03 23:36 | 26.14983 | -80.42988 | 5374 ft | 238 kts | 270° |
| 2026-05-03 23:36 | 26.14961 | -80.44771 | 5082 ft | 237 kts | 270° |
| 2026-05-03 23:36 | 26.14938 | -80.46571 | 4787 ft | 236 kts | 270° |
| 2026-05-03 23:37 | 26.14916 | -80.48373 | 4491 ft | 235 kts | 270° |
| 2026-05-03 23:37 | 26.14894 | -80.50147 | 4198 ft | 235 kts | 270° |
| 2026-05-03 23:37 | 26.14784 | -80.51865 | 3985 ft | 230 kts | 250° |
| 2026-05-03 23:37 | 26.13798 | -80.53156 | 4048 ft | 223 kts | 208° |
| 2026-05-03 23:38 | 26.12290 | -80.53660 | 4046 ft | 228 kts | 194° |
| 2026-05-03 23:38 | 26.10730 | -80.54055 | 4035 ft | 231 kts | 194° |
| 2026-05-03 23:38 | 26.09177 | -80.54326 | 4032 ft | 231 kts | 173° |
| 2026-05-03 23:38 | 26.07782 | -80.53542 | 4058 ft | 231 kts | 131° |
| 2026-05-03 23:39 | 26.07157 | -80.51938 | 4060 ft | 230 kts | 90° |
| 2026-05-03 23:39 | 26.07382 | -80.50324 | 3834 ft | 232 kts | 75° |
| 2026-05-03 23:39 | 26.07733 | -80.48704 | 3537 ft | 224 kts | 76° |
| 2026-05-03 23:39 | 26.07827 | -80.46936 | 3217 ft | 208 kts | 89° |
| 2026-05-03 23:40 | 26.07838 | -80.45403 | 2916 ft | 200 kts | 86° |
| 2026-05-03 23:40 | 26.07826 | -80.43958 | 2856 ft | 180 kts | 87° |
| 2026-05-03 23:40 | 26.07821 | -80.42593 | 2869 ft | 176 kts | 89° |
| 2026-05-03 23:40 | 26.07813 | -80.41259 | 2882 ft | 181 kts | 89° |
| 2026-05-03 23:41 | 26.07806 | -80.39812 | 2883 ft | 184 kts | 89° |
| 2026-05-03 23:41 | 26.07800 | -80.38415 | 2901 ft | 182 kts | 88° |
| 2026-05-03 23:41 | 26.07795 | -80.37071 | 2900 ft | 184 kts | 88° |
| 2026-05-03 23:41 | 26.07791 | -80.35576 | 2889 ft | 193 kts | 88° |
| 2026-05-03 23:42 | 26.07788 | -80.34157 | 2880 ft | 193 kts | 88° |
| 2026-05-03 23:42 | 26.07779 | -80.32734 | 2826 ft | 195 kts | 89° |
| 2026-05-03 23:42 | 26.07771 | -80.31204 | 2587 ft | 194 kts | 89° |
| 2026-05-03 23:42 | 26.07764 | -80.29696 | 2341 ft | 191 kts | 88° |
| 2026-05-03 23:43 | 26.07756 | -80.28227 | 2095 ft | 189 kts | 88° |
| 2026-05-03 23:43 | 26.07749 | -80.26765 | 1845 ft | 188 kts | 88° |
| 2026-05-03 23:43 | 26.07742 | -80.25332 | 1597 ft | 187 kts | 88° |
| 2026-05-03 23:43 | 26.07735 | -80.23950 | 1356 ft | 187 kts | 88° |
| 2026-05-03 23:44 | 26.07727 | -80.22517 | 1105 ft | 186 kts | 88° |
| 2026-05-03 23:44 | 26.07720 | -80.21128 | 859 ft | 177 kts | 88° |
| 2026-05-03 23:44 | 26.07712 | -80.19797 | 624 ft | 168 kts | 88° |
| 2026-05-03 23:44 | 26.07706 | -80.18645 | 420 ft | 160 kts | 88° |
| 2026-05-03 23:45 | 26.07700 | -80.17527 | 696 ft | 153 kts | 87° |
| 2026-05-03 23:45 | 26.07692 | -80.16156 | 1079 ft | 186 kts | 89° |
| 2026-05-03 23:45 | 26.07679 | -80.14709 | 1434 ft | 188 kts | 89° |
| 2026-05-03 23:45 | 26.07666 | -80.13301 | 1754 ft | 190 kts | 89° |
| 2026-05-03 23:46 | 26.07654 | -80.11804 | 2035 ft | 195 kts | 89° |
| 2026-05-03 23:46 | 26.07643 | -80.10310 | 2128 ft | 190 kts | 89° |
| 2026-05-03 23:46 | 26.07632 | -80.08816 | 2031 ft | 192 kts | 89° |
| 2026-05-03 23:46 | 26.07621 | -80.07328 | 2020 ft | 188 kts | 89° |
| 2026-05-03 23:47 | 26.07610 | -80.05872 | 2021 ft | 188 kts | 88° |
| 2026-05-03 23:47 | 26.07599 | -80.04394 | 2023 ft | 189 kts | 88° |
| 2026-05-03 23:47 | 26.07588 | -80.02928 | 2022 ft | 189 kts | 88° |
| 2026-05-03 23:47 | 26.07578 | -80.01471 | 2022 ft | 189 kts | 88° |
| 2026-05-03 23:48 | 26.07567 | -79.99989 | 2022 ft | 189 kts | 88° |
| 2026-05-03 23:48 | 26.07557 | -79.98490 | 2022 ft | 189 kts | 88° |
| 2026-05-03 23:48 | 26.07547 | -79.97015 | 2022 ft | 189 kts | 88° |
| 2026-05-03 23:48 | 26.07538 | -79.95570 | 2022 ft | 189 kts | 88° |
| 2026-05-03 23:49 | 26.07724 | -79.94156 | 2148 ft | 179 kts | 54° |
| 2026-05-03 23:49 | 26.08690 | -79.93364 | 2529 ft | 180 kts | 11° |
| 2026-05-03 23:49 | 26.09973 | -79.93392 | 2906 ft | 207 kts | 353° |
| 2026-05-03 23:49 | 26.11489 | -79.93600 | 3034 ft | 228 kts | 352° |
| 2026-05-03 23:50 | 26.13046 | -79.93822 | 3011 ft | 222 kts | 351° |
| 2026-05-03 23:50 | 26.13970 | -79.94229 | 3021 ft | 216 kts | 321° |
| 2026-05-03 23:50 | 26.14775 | -79.96237 | 3040 ft | 220 kts | 274° |
| 2026-05-03 23:50 | 26.14838 | -79.97941 | 3020 ft | 222 kts | 273° |
| 2026-05-03 23:51 | 26.14888 | -79.99674 | 3015 ft | 221 kts | 273° |
| 2026-05-03 23:51 | 26.14935 | -80.01354 | 3014 ft | 221 kts | 273° |
| 2026-05-03 23:51 | 26.14986 | -80.03122 | 3014 ft | 221 kts | 273° |
| 2026-05-03 23:51 | 26.15035 | -80.04834 | 3014 ft | 221 kts | 273° |
| 2026-05-03 23:52 | 26.15085 | -80.06567 | 3014 ft | 221 kts | 273° |
| 2026-05-03 23:52 | 26.15135 | -80.08273 | 3014 ft | 221 kts | 273° |
| 2026-05-03 23:52 | 26.15185 | -80.09987 | 3014 ft | 221 kts | 273° |
| 2026-05-03 23:52 | 26.15236 | -80.11740 | 3014 ft | 221 kts | 273° |
| 2026-05-03 23:53 | 26.15286 | -80.13429 | 3014 ft | 221 kts | 273° |
| 2026-05-03 23:53 | 26.15338 | -80.15150 | 3014 ft | 221 kts | 273° |
| 2026-05-03 23:53 | 26.15389 | -80.16869 | 3014 ft | 221 kts | 273° |
| 2026-05-03 23:53 | 26.15441 | -80.18599 | 3015 ft | 221 kts | 273° |
| 2026-05-03 23:54 | 26.15493 | -80.20299 | 3015 ft | 213 kts | 273° |
| 2026-05-03 23:54 | 26.15539 | -80.21858 | 3038 ft | 196 kts | 273° |
| 2026-05-03 23:54 | 26.15579 | -80.23334 | 3007 ft | 181 kts | 273° |
| 2026-05-03 23:54 | 26.15615 | -80.24713 | 3004 ft | 172 kts | 274° |
| 2026-05-03 23:55 | 26.15650 | -80.26051 | 3015 ft | 175 kts | 274° |
| 2026-05-03 23:55 | 26.15688 | -80.27449 | 3018 ft | 179 kts | 274° |
| 2026-05-03 23:55 | 26.15726 | -80.28854 | 3016 ft | 179 kts | 274° |
| 2026-05-03 23:55 | 26.15766 | -80.30252 | 3014 ft | 179 kts | 274° |
| 2026-05-03 23:56 | 26.15804 | -80.31626 | 3014 ft | 178 kts | 274° |
| 2026-05-03 23:56 | 26.15844 | -80.33022 | 3014 ft | 179 kts | 274° |
| 2026-05-03 23:56 | 26.15883 | -80.34375 | 3015 ft | 179 kts | 274° |
| 2026-05-03 23:56 | 26.15924 | -80.35780 | 3014 ft | 179 kts | 274° |
| 2026-05-03 23:57 | 26.15965 | -80.37158 | 3013 ft | 179 kts | 274° |
| 2026-05-03 23:57 | 26.16006 | -80.38550 | 3010 ft | 176 kts | 274° |
| 2026-05-03 23:57 | 26.16048 | -80.39928 | 3014 ft | 177 kts | 274° |
| 2026-05-03 23:57 | 26.16088 | -80.41289 | 3015 ft | 179 kts | 272° |
| 2026-05-03 23:58 | 26.15639 | -80.42532 | 3021 ft | 182 kts | 225° |
| 2026-05-03 23:58 | 26.14476 | -80.43097 | 3025 ft | 186 kts | 181° |
| 2026-05-03 23:58 | 26.13183 | -80.42970 | 3023 ft | 187 kts | 174° |
| 2026-05-03 23:58 | 26.11856 | -80.42798 | 3015 ft | 186 kts | 174° |
| 2026-05-03 23:59 | 26.10617 | -80.42628 | 3011 ft | 186 kts | 169° |
| 2026-05-03 23:59 | 26.09560 | -80.41852 | 3023 ft | 184 kts | 122° |
| 2026-05-03 23:59 | 26.09010 | -80.40604 | 3024 ft | 186 kts | 113° |
| 2026-05-03 23:59 | 26.08527 | -80.39407 | 3016 ft | 185 kts | 113° |
| 2026-05-04 00:00 | 26.07978 | -80.38046 | 3013 ft | 184 kts | 112° |
| 2026-05-04 00:00 | 26.07797 | -80.36655 | 3023 ft | 182 kts | 89° |
| 2026-05-04 00:00 | 26.07788 | -80.35259 | 3015 ft | 183 kts | 88° |
| 2026-05-04 00:00 | 26.07782 | -80.33892 | 3012 ft | 182 kts | 88° |
| 2026-05-04 00:01 | 26.07776 | -80.32436 | 2794 ft | 185 kts | 88° |
| 2026-05-04 00:01 | 26.07769 | -80.31046 | 2567 ft | 177 kts | 88° |
| 2026-05-04 00:01 | 26.07763 | -80.29710 | 2339 ft | 168 kts | 88° |
| 2026-05-04 00:01 | 26.07756 | -80.28458 | 2122 ft | 160 kts | 88° |
| 2026-05-04 00:02 | 26.07750 | -80.27247 | 1912 ft | 152 kts | 88° |
| 2026-05-04 00:02 | 26.07745 | -80.26106 | 1713 ft | 145 kts | 88° |
| 2026-05-04 00:02 | 26.07740 | -80.25015 | 1523 ft | 139 kts | 88° |
| 2026-05-04 00:02 | 26.07734 | -80.23969 | 1340 ft | 132 kts | 88° |
| 2026-05-04 00:03 | 26.07729 | -80.22951 | 1167 ft | 130 kts | 87° |
| 2026-05-04 00:03 | 26.07725 | -80.21944 | 1000 ft | 132 kts | 87° |
| 2026-05-04 00:03 | 26.07719 | -80.20943 | 830 ft | 132 kts | 88° |
| 2026-05-04 00:03 | 26.07713 | -80.19931 | 653 ft | 132 kts | 87° |
| 2026-05-04 00:04 | 26.07708 | -80.18946 | 482 ft | 131 kts | 87° |
| 2026-05-04 00:04 | 26.07702 | -80.17960 | 311 ft | 130 kts | 87° |
| 2026-05-04 00:04 | 26.07697 | -80.17031 | 159 ft | 128 kts | 87° |
| 2026-05-04 00:04 | 26.07694 | -80.16035 | 540 ft | 153 kts | 87° |
| 2026-05-04 00:05 | 26.07716 | -80.14560 | 1096 ft | 220 kts | 87° |
| 2026-05-04 00:05 | 26.08109 | -80.12936 | 1495 ft | 218 kts | 52° |
| 2026-05-04 00:05 | 26.09200 | -80.12103 | 1859 ft | 212 kts | 13° |
| 2026-05-04 00:05 | 26.10688 | -80.12131 | 2284 ft | 212 kts | 354° |
| 2026-05-04 00:06 | 26.12067 | -80.12302 | 2664 ft | 213 kts | 353° |
| 2026-05-04 00:06 | 26.13583 | -80.12494 | 3077 ft | 214 kts | 353° |
| 2026-05-04 00:06 | 26.15033 | -80.12676 | 3183 ft | 226 kts | 353° |
| 2026-05-04 00:06 | 26.16571 | -80.12870 | 2793 ft | 225 kts | 353° |
| 2026-05-04 00:07 | 26.18007 | -80.13352 | 2332 ft | 225 kts | 324° |
| 2026-05-04 00:07 | 26.18804 | -80.14741 | 1994 ft | 221 kts | 281° |
| 2026-05-04 00:07 | 26.18700 | -80.16373 | 2068 ft | 200 kts | 264° |
| 2026-05-04 00:07 | 26.18504 | -80.17818 | 2068 ft | 191 kts | 263° |
| 2026-05-04 00:08 | 26.18296 | -80.19314 | 2080 ft | 197 kts | 263° |
| 2026-05-04 00:08 | 26.18086 | -80.20841 | 2080 ft | 200 kts | 263° |
| 2026-05-04 00:08 | 26.17892 | -80.22254 | 2078 ft | 201 kts | 263° |
| 2026-05-04 00:08 | 26.17673 | -80.23851 | 2350 ft | 197 kts | 263° |
| 2026-05-04 00:09 | 26.17470 | -80.25337 | 2770 ft | 206 kts | 263° |
| 2026-05-04 00:09 | 26.17242 | -80.27048 | 3218 ft | 226 kts | 263° |
| 2026-05-04 00:09 | 26.17018 | -80.28748 | 3708 ft | 226 kts | 263° |
| 2026-05-04 00:09 | 26.16799 | -80.30415 | 4092 ft | 230 kts | 263° |
| 2026-05-04 00:10 | 26.16567 | -80.32194 | 3998 ft | 231 kts | 263° |
| 2026-05-04 00:10 | 26.16337 | -80.33959 | 3987 ft | 226 kts | 263° |
| 2026-05-04 00:10 | 26.16109 | -80.35713 | 3988 ft | 224 kts | 263° |
| 2026-05-04 00:10 | 26.15890 | -80.37388 | 3982 ft | 212 kts | 263° |
| 2026-05-04 00:11 | 26.15679 | -80.38991 | 3980 ft | 199 kts | 263° |
| 2026-05-04 00:11 | 26.15480 | -80.40488 | 3979 ft | 187 kts | 263° |
| 2026-05-04 00:11 | 26.15291 | -80.41898 | 3979 ft | 178 kts | 263° |
| 2026-05-04 00:11 | 26.15105 | -80.43280 | 4019 ft | 177 kts | 263° |
| 2026-05-04 00:12 | 26.14918 | -80.44668 | 4008 ft | 182 kts | 263° |
| 2026-05-04 00:12 | 26.14727 | -80.46097 | 3996 ft | 182 kts | 263° |
| 2026-05-04 00:12 | 26.14573 | -80.47235 | 4004 ft | 183 kts | 263° |
| 2026-05-04 00:12 | 26.14352 | -80.48865 | 4005 ft | 183 kts | 263° |
| 2026-05-04 00:13 | 26.14161 | -80.50270 | 4005 ft | 183 kts | 263° |
| 2026-05-04 00:13 | 26.13967 | -80.51699 | 4005 ft | 183 kts | 263° |
| 2026-05-04 00:13 | 26.13774 | -80.53105 | 4006 ft | 183 kts | 263° |
| 2026-05-04 00:13 | 26.13617 | -80.54251 | 4006 ft | 183 kts | 263° |
| 2026-05-04 00:14 | 26.13423 | -80.55666 | 4007 ft | 183 kts | 263° |
| 2026-05-04 00:14 | 26.12878 | -80.56910 | 4016 ft | 181 kts | 217° |
| 2026-05-04 00:14 | 26.11671 | -80.57177 | 4057 ft | 182 kts | 166° |
| 2026-05-04 00:14 | 26.10448 | -80.56804 | 4028 ft | 187 kts | 144° |
| 2026-05-04 00:15 | 26.09753 | -80.55636 | 4050 ft | 188 kts | 110° |
| 2026-05-04 00:15 | 26.09215 | -80.54343 | 4007 ft | 188 kts | 112° |
| 2026-05-04 00:15 | 26.08721 | -80.53101 | 3998 ft | 178 kts | 109° |
| 2026-05-04 00:15 | 26.08340 | -80.51859 | 3999 ft | 171 kts | 101° |
| 2026-05-04 00:16 | 26.08139 | -80.50571 | 4007 ft | 171 kts | 91° |
| 2026-05-04 00:16 | 26.08054 | -80.49242 | 4002 ft | 173 kts | 90° |
| 2026-05-04 00:16 | 26.07995 | -80.47901 | 4000 ft | 173 kts | 89° |
| 2026-05-04 00:16 | 26.07955 | -80.46555 | 3999 ft | 173 kts | 88° |
| 2026-05-04 00:17 | 26.07928 | -80.45224 | 3998 ft | 173 kts | 87° |
| 2026-05-04 00:17 | 26.07910 | -80.43906 | 3998 ft | 173 kts | 87° |
| 2026-05-04 00:17 | 26.07896 | -80.42570 | 3998 ft | 173 kts | 87° |
| 2026-05-04 00:17 | 26.07884 | -80.41230 | 3998 ft | 173 kts | 87° |
| 2026-05-04 00:18 | 26.07874 | -80.39899 | 3998 ft | 173 kts | 87° |
| 2026-05-04 00:18 | 26.07861 | -80.38551 | 3851 ft | 178 kts | 88° |
| 2026-05-04 00:18 | 26.07839 | -80.37209 | 3642 ft | 176 kts | 88° |
| 2026-05-04 00:18 | 26.07822 | -80.35860 | 3421 ft | 173 kts | 88° |
| 2026-05-04 00:19 | 26.07812 | -80.34512 | 3197 ft | 171 kts | 88° |
| 2026-05-04 00:19 | 26.07804 | -80.33203 | 2975 ft | 170 kts | 88° |
| 2026-05-04 00:19 | 26.07797 | -80.31884 | 2748 ft | 169 kts | 88° |
| 2026-05-04 00:19 | 26.07789 | -80.30561 | 2518 ft | 169 kts | 88° |
| 2026-05-04 00:20 | 26.07781 | -80.29285 | 2294 ft | 168 kts | 88° |
| 2026-05-04 00:20 | 26.07773 | -80.27986 | 2065 ft | 168 kts | 88° |
| 2026-05-04 00:20 | 26.07757 | -80.26740 | 1839 ft | 157 kts | 89° |
| 2026-05-04 00:20 | 26.07747 | -80.25545 | 1620 ft | 146 kts | 88° |
| 2026-05-04 00:21 | 26.07741 | -80.24466 | 1426 ft | 137 kts | 88° |
| 2026-05-04 00:21 | 26.07735 | -80.23444 | 1241 ft | 127 kts | 88° |
| 2026-05-04 00:21 | 26.07736 | -80.22492 | 1075 ft | 122 kts | 85° |
| 2026-05-04 00:21 | 26.07741 | -80.21560 | 924 ft | 125 kts | 85° |
| 2026-05-04 00:22 | 26.07734 | -80.20570 | 779 ft | 127 kts | 86° |
| 2026-05-04 00:22 | 26.07724 | -80.19598 | 602 ft | 128 kts | 87° |
| 2026-05-04 00:22 | 26.07715 | -80.18588 | 420 ft | 127 kts | 86° |
| 2026-05-04 00:22 | 26.07708 | -80.17625 | 252 ft | 126 kts | 86° |
| 2026-05-04 00:23 | 26.07705 | -80.16703 | 90 ft | 128 kts | 87° |
| 2026-05-04 00:23 | 26.07696 | -80.15919 | 12 ft | 121 kts | 88° |
| 2026-05-04 00:23 | 26.07697 | -80.15401 | 11 ft | 73 kts | 91° |
| 2026-05-04 00:23 | 26.07696 | -80.14889 | 11 ft | 59 kts | 85° |
| 2026-05-04 00:24 | 26.07781 | -80.14590 | 11 ft | 21 kts | 346° |
| 2026-05-04 00:24 | 26.07802 | -80.14767 | 11 ft | 29 kts | 275° |
| 2026-05-04 00:24 | 26.07809 | -80.14816 | 11 ft | 0 kts | 276° |
| 2026-05-04 00:25 | 26.07810 | -80.14822 | 11 ft | 1 kts | 295° |
| 2026-05-04 00:25 | 26.07818 | -80.14829 | 11 ft | 2 kts | 357° |
| 2026-05-04 00:25 | 26.07851 | -80.14826 | 11 ft | 8 kts | 356° |
| 2026-05-04 00:25 | 26.07889 | -80.14846 | 11 ft | 1 kts | 279° |
| 2026-05-04 00:26 | 26.07889 | -80.14857 | 11 ft | 0 kts | 272° |